Time;durP1;ratioP1;P1;durP2;ratioP2;P2;SDS_P1;SDS_P2;PMS_P1;PMS_P2;Temp;Humidity;BMP_temperature;BMP_pressure;BME280_temperature;BME280_humidity;BME280_pressure;Samples;Min_cycle;Max_cycle;Signal;HPM_P1;HPM_P2
2021/09/07 00:01:20;;;;;;;8.97;5.47;;;16.20;99.90;;;;;;20743356;28;20038;-75
2021/09/07 00:11:21;;;;;;;19.00;6.50;;;16.10;99.90;;;;;;20744248;28;20453;-75
2021/09/07 00:21:23;;;;;;;;;;;16.10;99.90;;;;;;20744683;28;20029;-75
2021/09/07 00:31:23;;;;;;;7.93;5.50;;;16.10;99.90;;;;;;20743137;28;19913;-76
2021/09/07 00:41:24;;;;;;;8.97;5.80;;;15.90;99.90;;;;;;20740162;28;20300;-75
2021/09/07 00:51:27;;;;;;;12.03;6.03;;;16.00;99.90;;;;;;20741193;28;20529;-75
2021/09/07 01:01:28;;;;;;;8.88;5.70;;;15.80;99.90;;;;;;20737840;28;20036;-75
2021/09/07 01:11:29;;;;;;;;;;;15.70;99.90;;;;;;20740644;28;20065;-75
2021/09/07 01:21:32;;;;;;;10.37;6.47;;;15.70;99.90;;;;;;20742220;28;19916;-75
2021/09/07 01:31:32;;;;;;;9.33;6.13;;;15.30;99.90;;;;;;20740688;28;20370;-75
2021/09/07 01:41:34;;;;;;;11.75;6.38;;;14.80;99.90;;;;;;20739802;28;20037;-75
2021/09/07 01:51:39;;;;;;;11.10;6.30;;;14.90;99.90;;;;;;20738999;28;20026;-74
2021/09/07 02:01:39;;;;;;;12.27;6.60;;;15.00;99.90;;;;;;20737617;28;20068;-75
2021/09/07 02:11:42;;;;;;;15.77;6.15;;;14.80;99.90;;;;;;20737831;28;20034;-74
2021/09/07 02:21:44;;;;;;;11.07;6.47;;;14.50;99.90;;;;;;20745863;28;20029;-75
2021/09/07 02:31:45;;;;;;;11.10;6.00;;;14.50;99.90;;;;;;20734083;28;20119;-75
2021/09/07 02:41:46;;;;;;;8.97;5.77;;;14.40;99.90;;;;;;20749833;28;20068;-74
2021/09/07 02:51:48;;;;;;;17.20;6.10;;;14.20;99.90;;;;;;20750468;28;20121;-75
2021/09/07 03:01:50;;;;;;;9.90;5.97;;;14.20;99.90;;;;;;20746925;28;20038;-75
2021/09/07 03:11:52;;;;;;;9.57;6.22;;;14.00;99.90;;;;;;20732707;28;20030;-75
2021/09/07 03:21:53;;;;;;;;;;;14.00;99.90;;;;;;20732239;28;20037;-75
2021/09/07 03:31:55;;;;;;;10.23;6.65;;;14.00;99.90;;;;;;20731023;28;19914;-75
2021/09/07 03:41:56;;;;;;;13.93;6.10;;;13.90;99.90;;;;;;20747959;28;20049;-74
2021/09/07 03:51:58;;;;;;;11.85;6.93;;;13.60;99.90;;;;;;20746438;28;20303;-74
2021/09/07 04:01:59;;;;;;;10.53;6.73;;;13.50;99.90;;;;;;20728794;28;20058;-75
2021/09/07 04:12:00;;;;;;;12.00;6.43;;;13.40;99.90;;;;;;20745437;28;20472;-75
2021/09/07 04:22:01;;;;;;;11.80;7.18;;;13.40;99.90;;;;;;20744865;28;20408;-74
2021/09/07 04:32:02;;;;;;;10.97;6.83;;;13.40;99.90;;;;;;20744062;28;20034;-74
2021/09/07 04:42:04;;;;;;;12.70;7.03;;;13.30;99.90;;;;;;20743977;28;20036;-73
2021/09/07 04:52:05;;;;;;;10.93;7.57;;;13.30;99.90;;;;;;20746506;28;20111;-72
2021/09/07 05:02:05;;;;;;;10.87;6.87;;;13.10;99.90;;;;;;20745078;28;20056;-72
2021/09/07 05:12:06;;;;;;;11.07;7.60;;;12.60;99.90;;;;;;20731877;28;20037;-73
2021/09/07 05:22:07;;;;;;;14.97;8.07;;;12.30;99.90;;;;;;20742199;28;20049;-73
2021/09/07 05:32:10;;;;;;;13.30;7.83;;;12.50;99.90;;;;;;20724106;28;20611;-73
2021/09/07 05:42:11;;;;;;;16.02;8.25;;;13.00;99.90;;;;;;20823510;23;20071;-76
2021/09/07 05:52:12;;;;;;;15.23;8.47;;;13.40;99.90;;;;;;20888388;28;20454;-77
2021/09/07 06:02:13;;;;;;;16.47;9.10;;;13.60;99.90;;;;;;20917766;28;20060;-76
2021/09/07 06:12:14;;;;;;;15.97;9.93;;;14.00;99.90;;;;;;20919104;28;20139;-76
2021/09/07 06:22:15;;;;;;;15.23;9.97;;;14.10;99.90;;;;;;20918727;28;20494;-77
2021/09/07 06:32:17;;;;;;;14.10;9.63;;;14.20;99.90;;;;;;20917911;28;20083;-76
2021/09/07 06:42:17;;;;;;;13.20;9.23;;;14.70;99.90;;;;;;20917241;28;20409;-77
2021/09/07 06:52:20;;;;;;;18.67;10.17;;;15.90;99.90;;;;;;20916050;28;20120;-77
2021/09/07 07:02:21;;;;;;;16.38;9.60;;;16.40;99.90;;;;;;20891369;28;20451;-77
2021/09/07 07:12:22;;;;;;;17.00;9.30;;;17.00;99.90;;;;;;20913179;28;20039;-77
2021/09/07 07:22:25;;;;;;;19.03;9.60;;;17.40;99.90;;;;;;20910658;28;20021;-77
2021/09/07 07:32:26;;;;;;;14.05;8.70;;;17.40;99.90;;;;;;20895530;28;20029;-77
2021/09/07 07:42:26;;;;;;;15.43;8.50;;;17.70;99.90;;;;;;20912534;28;20037;-77
2021/09/07 07:52:27;;;;;;;14.50;8.10;;;17.30;99.90;;;;;;20894010;28;20099;-77
2021/09/07 08:02:28;;;;;;;17.00;8.00;;;17.50;99.90;;;;;;20893191;28;20067;-77
2021/09/07 08:12:29;;;;;;;16.53;8.20;;;18.10;99.90;;;;;;20910125;28;20032;-76
2021/09/07 08:22:30;;;;;;;13.57;7.37;;;18.30;99.90;;;;;;20909176;28;20044;-76
2021/09/07 08:32:32;;;;;;;13.13;7.90;;;18.90;99.90;;;;;;20908653;28;20108;-76
2021/09/07 08:42:34;;;;;;;13.45;7.28;;;20.60;99.90;;;;;;20907699;28;20053;-77
2021/09/07 08:52:35;;;;;;;19.48;7.30;;;20.50;99.90;;;;;;20904494;28;20025;-77
2021/09/07 09:02:41;;;;;;;13.43;7.73;;;20.00;99.90;;;;;;20885121;28;20405;-76
2021/09/07 09:12:42;;;;;;;13.40;8.18;;;19.90;99.90;;;;;;20884016;28;20083;-77
2021/09/07 09:22:51;;;;;;;13.27;7.20;;;21.30;99.90;;;;;;20905973;28;20029;-78
2021/09/07 09:32:53;;;;;;;9.75;6.15;;;23.10;99.90;;;;;;20916929;28;20067;-78
2021/09/07 09:42:56;;;;;;;11.68;7.47;;;24.20;99.90;;;;;;20922773;28;20025;-77
2021/09/07 09:53:00;;;;;;;10.45;6.80;;;25.40;99.90;;;;;;20902085;28;20029;-77
2021/09/07 10:03:01;;;;;;;10.77;6.75;;;25.70;99.90;;;;;;20918903;28;20051;-77
2021/09/07 10:13:07;;;;;;;11.10;6.50;;;25.30;99.90;;;;;;20895997;28;20457;-77
2021/09/07 10:23:28;;;;;;;9.77;6.28;;;26.10;99.90;;;;;;20896423;28;20045;-77
2021/09/07 10:33:36;;;;;;;10.17;6.40;;;27.50;99.90;;;;;;20897468;28;20029;-77
2021/09/07 10:43:57;;;;;;;10.32;6.50;;;27.60;99.90;;;;;;20905348;28;20119;-77
2021/09/07 10:54:08;;;;;;;;;;;27.80;99.90;;;;;;20892914;28;20048;-76
2021/09/07 11:04:32;;;;;;;10.02;5.22;;;27.60;99.90;;;;;;20878334;28;19923;-75
2021/09/07 11:14:32;;;;;;;9.00;5.72;;;27.50;99.90;;;;;;20890501;28;20065;-77
2021/09/07 11:24:33;;;;;;;9.25;5.93;;;27.70;99.90;;;;;;20892492;28;20562;-77
2021/09/07 11:34:34;;;;;;;9.43;4.82;;;27.70;99.90;;;;;;20892439;28;20510;-77
2021/09/07 11:44:35;;;;;;;8.38;5.20;;;28.10;99.90;;;;;;20917612;22;20051;-76
2021/09/07 11:54:36;;;;;;;6.32;4.80;;;28.50;99.90;;;;;;20869173;28;20053;-77
2021/09/07 12:04:56;;;;;;;6.97;4.95;;;28.40;99.90;;;;;;20845732;28;20016;-76
2021/09/07 12:14:59;;;;;;;7.87;4.80;;;28.70;99.90;;;;;;20806020;28;20033;-78
2021/09/07 12:25:12;;;;;;;6.72;4.75;;;29.10;99.90;;;;;;20806307;28;20037;-80
2021/09/07 12:35:31;;;;;;;15.35;6.85;;;28.40;99.90;;;;;;20850696;28;20033;-78
2021/09/07 12:45:33;;;;;;;9.25;4.90;;;28.50;99.90;;;;;;20836051;28;20105;-79
2021/09/07 12:55:42;;;;;;;11.43;5.63;;;28.90;99.90;;;;;;20855653;28;20063;-77
2021/09/07 13:05:44;;;;;;;9.00;4.22;;;29.10;99.90;;;;;;20853457;28;20039;-80
2021/09/07 13:15:45;;;;;;;5.72;3.60;;;29.20;99.90;;;;;;20886023;28;20052;-80
2021/09/07 13:25:46;;;;;;;5.40;3.80;;;29.20;99.90;;;;;;20844805;28;20049;-79
2021/09/07 13:35:46;;;;;;;6.07;3.80;;;29.30;99.90;;;;;;20840953;28;20076;-80
2021/09/07 13:45:47;;;;;;;8.88;3.80;;;29.40;99.90;;;;;;20859359;28;20068;-81
2021/09/07 13:55:48;;;;;;;5.60;3.95;;;29.40;99.90;;;;;;20800064;28;20036;-78
2021/09/07 14:05:49;;;;;;;7.38;3.67;;;29.10;99.90;;;;;;20862752;28;20057;-80
2021/09/07 14:15:50;;;;;;;5.87;4.20;;;29.30;99.90;;;;;;20876607;28;20045;-80
2021/09/07 14:25:51;;;;;;;7.10;3.40;;;28.30;99.90;;;;;;20832929;28;20292;-80
2021/09/07 14:35:53;;;;;;;4.95;3.40;;;29.10;99.90;;;;;;20829863;28;20041;-78
2021/09/07 14:45:54;;;;;;;5.90;3.85;;;29.30;99.90;;;;;;20849197;28;20037;-80
2021/09/07 14:55:55;;;;;;;8.40;4.00;;;29.10;99.90;;;;;;20863249;28;20582;-80
2021/09/07 15:05:55;;;;;;;7.75;4.13;;;29.20;99.90;;;;;;20864634;28;20091;-78
2021/09/07 15:15:56;;;;;;;8.10;3.88;;;28.80;99.90;;;;;;20857673;28;20037;-77
2021/09/07 15:25:58;;;;;;;7.72;4.25;;;28.40;99.90;;;;;;20872919;28;20029;-79
2021/09/07 15:35:59;;;;;;;6.88;4.20;;;28.60;99.90;;;;;;20866296;28;20723;-79
2021/09/07 15:46:01;;;;;;;8.40;4.30;;;28.30;99.90;;;;;;20870537;28;20073;-79
2021/09/07 15:56:02;;;;;;;9.13;4.15;;;27.30;99.90;;;;;;20886074;28;20124;-77
2021/09/07 16:06:04;;;;;;;9.38;4.30;;;27.20;99.90;;;;;;20851729;28;20107;-78
2021/09/07 16:16:05;;;;;;;5.82;4.03;;;26.60;99.90;;;;;;20891840;28;20049;-79
2021/09/07 16:26:06;;;;;;;6.15;4.13;;;26.60;99.90;;;;;;20899203;28;20635;-79
2021/09/07 16:36:07;;;;;;;7.15;4.05;;;26.40;99.90;;;;;;20898124;28;20032;-79
2021/09/07 16:46:08;;;;;;;8.98;4.78;;;26.00;99.90;;;;;;20897043;28;20104;-77
2021/09/07 16:56:10;;;;;;;8.85;4.07;;;25.70;99.90;;;;;;20897760;28;20487;-78
2021/09/07 17:06:11;;;;;;;9.63;4.53;;;25.30;99.90;;;;;;20898511;28;20051;-78
2021/09/07 17:16:11;;;;;;;;;;;24.80;99.90;;;;;;20895513;28;20482;-77
2021/09/07 17:26:12;;;;;;;8.33;5.17;;;23.90;99.90;;;;;;20854013;28;20030;-76
2021/09/07 17:36:32;;;;;;;8.33;4.53;;;22.80;99.90;;;;;;20808825;28;20037;-78
2021/09/07 17:46:33;;;;;;;8.10;4.70;;;22.30;99.90;;;;;;20863347;22;20063;-74
2021/09/07 17:56:35;;;;;;;8.83;5.33;;;21.50;99.90;;;;;;20900273;28;21009;-74
2021/09/07 18:06:37;;;;;;;7.30;5.40;;;21.00;99.90;;;;;;20923505;28;20039;-73
2021/09/07 18:16:40;;;;;;;13.65;6.13;;;20.70;99.90;;;;;;20978455;28;20032;-74
2021/09/07 18:26:42;;;;;;;9.25;5.45;;;20.30;99.90;;;;;;20899485;28;20055;-74
2021/09/07 18:36:43;;;;;;;12.20;5.45;;;20.10;99.90;;;;;;20894124;28;20028;-74
2021/09/07 18:46:44;;;;;;;12.10;5.35;;;20.00;99.90;;;;;;20894975;28;20041;-74
2021/09/07 18:56:45;;;;;;;9.93;5.07;;;19.60;99.90;;;;;;20925826;28;20029;-74
2021/09/07 19:06:45;;;;;;;7.93;5.27;;;19.40;99.90;;;;;;20914311;28;20029;-74
2021/09/07 19:16:46;;;;;;;7.23;4.63;;;19.10;99.90;;;;;;20894464;28;20036;-74
2021/09/07 19:26:49;;;;;;;9.32;4.85;;;19.00;99.90;;;;;;20892707;28;20036;-74
2021/09/07 19:36:50;;;;;;;8.43;5.77;;;18.60;99.90;;;;;;20875559;28;20087;-74
2021/09/07 19:46:51;;;;;;;8.10;4.80;;;18.50;99.90;;;;;;20897091;28;20060;-73
2021/09/07 19:56:52;;;;;;;9.00;5.37;;;18.50;99.90;;;;;;20923658;28;20151;-74
2021/09/07 20:06:53;;;;;;;8.47;5.30;;;18.30;99.90;;;;;;20890972;28;20044;-74
2021/09/07 20:16:53;;;;;;;9.07;5.03;;;18.20;99.90;;;;;;20888811;28;20598;-74
2021/09/07 20:26:58;;;;;;;8.33;5.37;;;18.00;99.90;;;;;;20888899;28;20506;-74
2021/09/07 20:36:59;;;;;;;7.80;4.88;;;17.80;99.90;;;;;;20903525;28;20037;-75
2021/09/07 20:46:59;;;;;;;10.37;5.20;;;18.00;99.90;;;;;;20945463;28;20028;-74
2021/09/07 20:57:00;;;;;;;10.23;4.97;;;18.10;99.90;;;;;;20928595;28;20120;-73
2021/09/07 21:07:01;;;;;;;10.03;5.30;;;18.10;99.90;;;;;;20945674;28;20020;-74
2021/09/07 21:17:04;;;;;;;9.07;5.53;;;17.80;99.90;;;;;;20945187;28;20402;-74
2021/09/07 21:27:05;;;;;;;8.60;5.53;;;17.80;99.90;;;;;;20926294;28;20186;-74
2021/09/07 21:37:06;;;;;;;10.50;5.50;;;17.80;99.90;;;;;;20944853;28;20025;-74
2021/09/07 21:47:07;;;;;;;8.90;5.73;;;17.50;99.90;;;;;;20947209;28;20060;-74
2021/09/07 21:57:08;;;;;;;9.50;6.03;;;17.60;99.90;;;;;;20941459;28;20039;-74
2021/09/07 22:07:09;;;;;;;11.07;5.78;;;17.40;99.90;;;;;;20943860;28;20111;-74
2021/09/07 22:17:10;;;;;;;8.27;5.50;;;17.40;99.90;;;;;;20904173;28;20495;-74
2021/09/07 22:27:11;;;;;;;8.97;5.47;;;17.00;99.90;;;;;;20929781;28;20024;-74
2021/09/07 22:37:12;;;;;;;11.67;6.53;;;16.80;99.90;;;;;;20835047;28;20053;-74
2021/09/07 22:47:13;;;;;;;9.57;6.47;;;16.70;99.90;;;;;;20834485;28;20084;-74
2021/09/07 22:57:14;;;;;;;13.87;6.60;;;16.70;99.90;;;;;;20834813;28;20025;-74
2021/09/07 23:07:15;;;;;;;10.97;5.83;;;16.60;99.90;;;;;;20815643;28;20033;-74
2021/09/07 23:17:16;;;;;;;11.53;6.83;;;16.50;99.90;;;;;;20814793;28;20029;-74
2021/09/07 23:27:17;;;;;;;10.53;6.10;;;16.50;99.90;;;;;;20814064;28;20148;-75
2021/09/07 23:37:18;;;;;;;11.37;7.20;;;16.20;99.90;;;;;;20830636;28;20033;-74
2021/09/07 23:47:19;;;;;;;12.47;6.17;;;16.10;99.90;;;;;;20781398;22;20046;-76
2021/09/07 23:57:20;;;;;;;10.63;6.97;;;16.00;99.90;;;;;;20747636;28;20088;-77
